sensor_id;sensor_type;location;lat;lon;timestamp;P1;durP1;ratioP1;P2;durP2;ratioP2
14778;SDS011;7481;53.750;10.570;2023-01-19T00:01:41;18.20;;;10.70;;
14778;SDS011;7481;53.750;10.570;2023-01-19T00:04:29;18.77;;;10.73;;
14778;SDS011;7481;53.750;10.570;2023-01-19T00:07:16;18.53;;;10.13;;
14778;SDS011;7481;53.750;10.570;2023-01-19T00:10:04;16.87;;;10.20;;
14778;SDS011;7481;53.750;10.570;2023-01-19T00:12:51;17.73;;;10.00;;
14778;SDS011;7481;53.750;10.570;2023-01-19T00:15:39;18.97;;;10.10;;
14778;SDS011;7481;53.750;10.570;2023-01-19T00:18:26;15.70;;;10.70;;
14778;SDS011;7481;53.750;10.570;2023-01-19T00:21:13;20.00;;;10.27;;
14778;SDS011;7481;53.750;10.570;2023-01-19T00:24:01;21.27;;;10.90;;
14778;SDS011;7481;53.750;10.570;2023-01-19T00:26:48;19.07;;;10.10;;
14778;SDS011;7481;53.750;10.570;2023-01-19T00:29:35;18.47;;;10.17;;
14778;SDS011;7481;53.750;10.570;2023-01-19T00:32:23;14.63;;;9.43;;
14778;SDS011;7481;53.750;10.570;2023-01-19T00:35:10;16.50;;;10.13;;
14778;SDS011;7481;53.750;10.570;2023-01-19T00:37:58;19.43;;;10.27;;
14778;SDS011;7481;53.750;10.570;2023-01-19T00:40:46;16.87;;;10.50;;
14778;SDS011;7481;53.750;10.570;2023-01-19T00:43:33;16.27;;;9.40;;
14778;SDS011;7481;53.750;10.570;2023-01-19T00:46:20;14.13;;;9.47;;
14778;SDS011;7481;53.750;10.570;2023-01-19T00:49:12;17.03;;;10.40;;
14778;SDS011;7481;53.750;10.570;2023-01-19T00:51:59;19.80;;;10.30;;
14778;SDS011;7481;53.750;10.570;2023-01-19T00:54:47;15.07;;;9.37;;
14778;SDS011;7481;53.750;10.570;2023-01-19T00:57:34;17.07;;;10.17;;
14778;SDS011;7481;53.750;10.570;2023-01-19T01:00:22;17.00;;;9.70;;
14778;SDS011;7481;53.750;10.570;2023-01-19T01:03:09;18.80;;;10.53;;
14778;SDS011;7481;53.750;10.570;2023-01-19T01:05:57;17.10;;;9.30;;
14778;SDS011;7481;53.750;10.570;2023-01-19T01:08:44;24.33;;;11.37;;
14778;SDS011;7481;53.750;10.570;2023-01-19T01:11:32;14.90;;;9.13;;
14778;SDS011;7481;53.750;10.570;2023-01-19T01:14:19;16.73;;;9.13;;
14778;SDS011;7481;53.750;10.570;2023-01-19T01:17:07;14.87;;;9.60;;
14778;SDS011;7481;53.750;10.570;2023-01-19T01:19:56;16.57;;;10.27;;
14778;SDS011;7481;53.750;10.570;2023-01-19T01:22:45;15.77;;;9.17;;
14778;SDS011;7481;53.750;10.570;2023-01-19T01:25:32;16.13;;;9.23;;
14778;SDS011;7481;53.750;10.570;2023-01-19T01:28:23;17.43;;;10.27;;
14778;SDS011;7481;53.750;10.570;2023-01-19T01:31:10;18.57;;;9.90;;
14778;SDS011;7481;53.750;10.570;2023-01-19T01:33:57;21.70;;;10.37;;
14778;SDS011;7481;53.750;10.570;2023-01-19T01:36:45;19.30;;;10.23;;
14778;SDS011;7481;53.750;10.570;2023-01-19T01:39:33;17.23;;;9.80;;
14778;SDS011;7481;53.750;10.570;2023-01-19T01:42:24;16.00;;;9.27;;
14778;SDS011;7481;53.750;10.570;2023-01-19T01:51:06;17.43;;;9.23;;
14778;SDS011;7481;53.750;10.570;2023-01-19T01:54:20;13.20;;;8.93;;
14778;SDS011;7481;53.750;10.570;2023-01-19T01:57:08;16.87;;;10.60;;
14778;SDS011;7481;53.750;10.570;2023-01-19T01:59:57;14.80;;;9.27;;
14778;SDS011;7481;53.750;10.570;2023-01-19T02:02:45;12.97;;;8.27;;
14778;SDS011;7481;53.750;10.570;2023-01-19T02:05:40;16.43;;;9.77;;
14778;SDS011;7481;53.750;10.570;2023-01-19T02:08:32;17.90;;;9.47;;
14778;SDS011;7481;53.750;10.570;2023-01-19T02:11:40;17.47;;;9.40;;
14778;SDS011;7481;53.750;10.570;2023-01-19T02:14:46;14.57;;;9.67;;
14778;SDS011;7481;53.750;10.570;2023-01-19T02:17:34;16.43;;;9.97;;
14778;SDS011;7481;53.750;10.570;2023-01-19T02:20:21;19.23;;;9.93;;
14778;SDS011;7481;53.750;10.570;2023-01-19T02:23:12;14.37;;;9.33;;
14778;SDS011;7481;53.750;10.570;2023-01-19T02:26:01;17.03;;;9.10;;
14778;SDS011;7481;53.750;10.570;2023-01-19T02:28:51;15.43;;;9.33;;
14778;SDS011;7481;53.750;10.570;2023-01-19T02:31:39;14.83;;;9.50;;
14778;SDS011;7481;53.750;10.570;2023-01-19T02:34:27;16.67;;;9.60;;
14778;SDS011;7481;53.750;10.570;2023-01-19T02:37:15;15.13;;;9.00;;
14778;SDS011;7481;53.750;10.570;2023-01-19T02:40:03;17.23;;;10.10;;
14778;SDS011;7481;53.750;10.570;2023-01-19T02:42:52;16.57;;;10.23;;
14778;SDS011;7481;53.750;10.570;2023-01-19T02:45:44;17.30;;;9.17;;
14778;SDS011;7481;53.750;10.570;2023-01-19T02:48:33;17.43;;;9.80;;
14778;SDS011;7481;53.750;10.570;2023-01-19T02:51:24;15.00;;;8.73;;
14778;SDS011;7481;53.750;10.570;2023-01-19T02:54:27;17.03;;;9.17;;
14778;SDS011;7481;53.750;10.570;2023-01-19T03:09:34;12.97;;;8.17;;
14778;SDS011;7481;53.750;10.570;2023-01-19T03:12:31;15.20;;;9.33;;
14778;SDS011;7481;53.750;10.570;2023-01-19T03:15:31;14.43;;;9.00;;
14778;SDS011;7481;53.750;10.570;2023-01-19T03:18:23;14.33;;;8.70;;
14778;SDS011;7481;53.750;10.570;2023-01-19T03:21:11;14.40;;;8.73;;
14778;SDS011;7481;53.750;10.570;2023-01-19T03:24:01;14.67;;;9.07;;
14778;SDS011;7481;53.750;10.570;2023-01-19T03:26:56;16.13;;;9.33;;
14778;SDS011;7481;53.750;10.570;2023-01-19T03:29:47;15.43;;;10.07;;
14778;SDS011;7481;53.750;10.570;2023-01-19T03:32:38;14.90;;;9.73;;
14778;SDS011;7481;53.750;10.570;2023-01-19T03:35:28;16.43;;;9.73;;
14778;SDS011;7481;53.750;10.570;2023-01-19T03:38:18;13.93;;;9.10;;
14778;SDS011;7481;53.750;10.570;2023-01-19T03:41:12;19.60;;;9.57;;
14778;SDS011;7481;53.750;10.570;2023-01-19T03:44:00;13.20;;;8.07;;
14778;SDS011;7481;53.750;10.570;2023-01-19T03:46:48;17.37;;;9.20;;
14778;SDS011;7481;53.750;10.570;2023-01-19T03:49:36;13.90;;;8.97;;
14778;SDS011;7481;53.750;10.570;2023-01-19T03:52:28;19.53;;;10.07;;
14778;SDS011;7481;53.750;10.570;2023-01-19T03:55:17;14.33;;;8.93;;
14778;SDS011;7481;53.750;10.570;2023-01-19T03:58:05;14.63;;;8.73;;
14778;SDS011;7481;53.750;10.570;2023-01-19T04:00:52;16.03;;;8.57;;
14778;SDS011;7481;53.750;10.570;2023-01-19T04:03:40;13.23;;;9.00;;
14778;SDS011;7481;53.750;10.570;2023-01-19T04:06:28;15.80;;;8.97;;
14778;SDS011;7481;53.750;10.570;2023-01-19T04:09:15;17.47;;;9.30;;
14778;SDS011;7481;53.750;10.570;2023-01-19T04:12:05;15.17;;;9.07;;
14778;SDS011;7481;53.750;10.570;2023-01-19T04:14:52;17.40;;;9.63;;
14778;SDS011;7481;53.750;10.570;2023-01-19T04:17:40;16.80;;;10.10;;
14778;SDS011;7481;53.750;10.570;2023-01-19T04:20:27;16.43;;;9.27;;
14778;SDS011;7481;53.750;10.570;2023-01-19T04:23:15;14.63;;;9.27;;
14778;SDS011;7481;53.750;10.570;2023-01-19T04:26:03;15.40;;;8.95;;
14778;SDS011;7481;53.750;10.570;2023-01-19T04:28:51;15.70;;;8.97;;
14778;SDS011;7481;53.750;10.570;2023-01-19T04:31:39;15.93;;;9.10;;
14778;SDS011;7481;53.750;10.570;2023-01-19T04:34:26;18.60;;;9.40;;
14778;SDS011;7481;53.750;10.570;2023-01-19T04:37:14;15.30;;;9.20;;
14778;SDS011;7481;53.750;10.570;2023-01-19T04:40:01;15.07;;;8.40;;
14778;SDS011;7481;53.750;10.570;2023-01-19T04:42:48;15.20;;;9.27;;
14778;SDS011;7481;53.750;10.570;2023-01-19T04:45:36;14.43;;;8.13;;
14778;SDS011;7481;53.750;10.570;2023-01-19T04:48:23;15.07;;;9.50;;
14778;SDS011;7481;53.750;10.570;2023-01-19T04:51:11;15.53;;;9.47;;
14778;SDS011;7481;53.750;10.570;2023-01-19T04:53:58;16.03;;;10.27;;
14778;SDS011;7481;53.750;10.570;2023-01-19T04:56:46;15.37;;;9.70;;
14778;SDS011;7481;53.750;10.570;2023-01-19T04:59:34;16.97;;;9.93;;
14778;SDS011;7481;53.750;10.570;2023-01-19T05:02:21;15.37;;;10.27;;
14778;SDS011;7481;53.750;10.570;2023-01-19T05:05:09;18.57;;;9.50;;
14778;SDS011;7481;53.750;10.570;2023-01-19T05:07:57;16.93;;;9.93;;
14778;SDS011;7481;53.750;10.570;2023-01-19T05:10:44;15.57;;;10.13;;
14778;SDS011;7481;53.750;10.570;2023-01-19T05:13:32;16.10;;;10.50;;
14778;SDS011;7481;53.750;10.570;2023-01-19T05:16:19;16.40;;;10.23;;
14778;SDS011;7481;53.750;10.570;2023-01-19T05:19:06;16.93;;;11.03;;
14778;SDS011;7481;53.750;10.570;2023-01-19T05:21:54;19.97;;;11.10;;
14778;SDS011;7481;53.750;10.570;2023-01-19T05:24:41;15.77;;;9.77;;
14778;SDS011;7481;53.750;10.570;2023-01-19T05:27:29;18.43;;;11.13;;
14778;SDS011;7481;53.750;10.570;2023-01-19T05:30:16;22.37;;;11.93;;
14778;SDS011;7481;53.750;10.570;2023-01-19T05:33:04;18.17;;;11.20;;
14778;SDS011;7481;53.750;10.570;2023-01-19T05:35:52;17.33;;;10.60;;
14778;SDS011;7481;53.750;10.570;2023-01-19T05:38:39;18.03;;;11.07;;
14778;SDS011;7481;53.750;10.570;2023-01-19T05:41:27;22.57;;;11.80;;
14778;SDS011;7481;53.750;10.570;2023-01-19T05:44:14;15.10;;;9.67;;
14778;SDS011;7481;53.750;10.570;2023-01-19T05:47:01;20.07;;;11.17;;
14778;SDS011;7481;53.750;10.570;2023-01-19T05:49:49;22.00;;;11.13;;
14778;SDS011;7481;53.750;10.570;2023-01-19T05:52:36;17.33;;;10.87;;
14778;SDS011;7481;53.750;10.570;2023-01-19T05:55:24;18.83;;;12.53;;
14778;SDS011;7481;53.750;10.570;2023-01-19T05:58:12;19.27;;;11.50;;
14778;SDS011;7481;53.750;10.570;2023-01-19T06:01:02;17.07;;;10.67;;
14778;SDS011;7481;53.750;10.570;2023-01-19T06:03:51;17.57;;;10.57;;
14778;SDS011;7481;53.750;10.570;2023-01-19T06:06:38;22.03;;;13.03;;
14778;SDS011;7481;53.750;10.570;2023-01-19T06:09:26;18.93;;;11.13;;
14778;SDS011;7481;53.750;10.570;2023-01-19T06:12:13;21.83;;;12.53;;
14778;SDS011;7481;53.750;10.570;2023-01-19T06:15:00;21.97;;;12.23;;
14778;SDS011;7481;53.750;10.570;2023-01-19T06:17:48;22.27;;;11.93;;
14778;SDS011;7481;53.750;10.570;2023-01-19T06:20:35;20.00;;;12.20;;
14778;SDS011;7481;53.750;10.570;2023-01-19T06:23:23;21.17;;;12.43;;
14778;SDS011;7481;53.750;10.570;2023-01-19T06:26:11;19.93;;;12.60;;
14778;SDS011;7481;53.750;10.570;2023-01-19T06:28:59;19.10;;;12.23;;
14778;SDS011;7481;53.750;10.570;2023-01-19T06:31:46;19.67;;;12.33;;
14778;SDS011;7481;53.750;10.570;2023-01-19T06:34:33;20.17;;;12.80;;
14778;SDS011;7481;53.750;10.570;2023-01-19T06:37:21;23.53;;;14.50;;
14778;SDS011;7481;53.750;10.570;2023-01-19T06:40:10;21.93;;;12.17;;
14778;SDS011;7481;53.750;10.570;2023-01-19T06:43:00;18.20;;;12.03;;
14778;SDS011;7481;53.750;10.570;2023-01-19T06:45:48;20.73;;;12.70;;
14778;SDS011;7481;53.750;10.570;2023-01-19T06:48:36;20.60;;;12.30;;
14778;SDS011;7481;53.750;10.570;2023-01-19T06:51:23;28.67;;;16.07;;
14778;SDS011;7481;53.750;10.570;2023-01-19T06:54:11;38.27;;;20.60;;
14778;SDS011;7481;53.750;10.570;2023-01-19T06:56:58;33.90;;;17.90;;
14778;SDS011;7481;53.750;10.570;2023-01-19T06:59:48;44.40;;;19.67;;
14778;SDS011;7481;53.750;10.570;2023-01-19T07:02:35;34.33;;;18.90;;
14778;SDS011;7481;53.750;10.570;2023-01-19T07:05:23;31.17;;;15.77;;
14778;SDS011;7481;53.750;10.570;2023-01-19T07:08:10;23.87;;;14.50;;
14778;SDS011;7481;53.750;10.570;2023-01-19T07:10:59;23.73;;;14.33;;
14778;SDS011;7481;53.750;10.570;2023-01-19T07:14:07;22.87;;;15.00;;
14778;SDS011;7481;53.750;10.570;2023-01-19T07:16:54;23.27;;;14.67;;
14778;SDS011;7481;53.750;10.570;2023-01-19T07:19:42;26.77;;;15.33;;
14778;SDS011;7481;53.750;10.570;2023-01-19T07:22:29;23.53;;;14.83;;
14778;SDS011;7481;53.750;10.570;2023-01-19T07:25:16;24.87;;;16.20;;
14778;SDS011;7481;53.750;10.570;2023-01-19T07:28:04;26.43;;;17.07;;
14778;SDS011;7481;53.750;10.570;2023-01-19T07:30:51;25.23;;;15.80;;
14778;SDS011;7481;53.750;10.570;2023-01-19T07:33:39;26.70;;;15.67;;
14778;SDS011;7481;53.750;10.570;2023-01-19T07:36:26;27.00;;;15.87;;
14778;SDS011;7481;53.750;10.570;2023-01-19T07:39:14;24.67;;;15.17;;
14778;SDS011;7481;53.750;10.570;2023-01-19T07:42:01;25.73;;;13.97;;
14778;SDS011;7481;53.750;10.570;2023-01-19T07:44:49;22.80;;;14.73;;
14778;SDS011;7481;53.750;10.570;2023-01-19T07:47:37;25.40;;;15.70;;
14778;SDS011;7481;53.750;10.570;2023-01-19T07:50:24;27.17;;;16.40;;
14778;SDS011;7481;53.750;10.570;2023-01-19T07:53:13;25.53;;;16.80;;
14778;SDS011;7481;53.750;10.570;2023-01-19T07:56:00;25.60;;;15.13;;
14778;SDS011;7481;53.750;10.570;2023-01-19T07:58:47;25.03;;;15.23;;
14778;SDS011;7481;53.750;10.570;2023-01-19T08:01:37;24.17;;;15.83;;
14778;SDS011;7481;53.750;10.570;2023-01-19T08:04:25;27.10;;;16.73;;
14778;SDS011;7481;53.750;10.570;2023-01-19T08:07:13;24.70;;;15.67;;
14778;SDS011;7481;53.750;10.570;2023-01-19T08:10:00;28.77;;;16.30;;
14778;SDS011;7481;53.750;10.570;2023-01-19T08:12:48;27.83;;;17.07;;
14778;SDS011;7481;53.750;10.570;2023-01-19T08:15:35;24.77;;;15.47;;
14778;SDS011;7481;53.750;10.570;2023-01-19T08:18:23;27.13;;;15.80;;
14778;SDS011;7481;53.750;10.570;2023-01-19T08:21:10;27.73;;;17.20;;
14778;SDS011;7481;53.750;10.570;2023-01-19T08:23:57;28.47;;;16.17;;
14778;SDS011;7481;53.750;10.570;2023-01-19T08:26:45;27.67;;;16.37;;
14778;SDS011;7481;53.750;10.570;2023-01-19T08:29:32;29.03;;;15.80;;
14778;SDS011;7481;53.750;10.570;2023-01-19T08:32:20;27.50;;;16.03;;
14778;SDS011;7481;53.750;10.570;2023-01-19T08:35:08;25.13;;;15.80;;
14778;SDS011;7481;53.750;10.570;2023-01-19T08:37:55;26.73;;;15.37;;
14778;SDS011;7481;53.750;10.570;2023-01-19T08:40:47;25.33;;;16.10;;
14778;SDS011;7481;53.750;10.570;2023-01-19T08:43:34;27.23;;;15.40;;
14778;SDS011;7481;53.750;10.570;2023-01-19T08:46:23;23.20;;;15.10;;
14778;SDS011;7481;53.750;10.570;2023-01-19T08:49:10;23.07;;;14.23;;
14778;SDS011;7481;53.750;10.570;2023-01-19T08:51:58;25.53;;;15.50;;
14778;SDS011;7481;53.750;10.570;2023-01-19T08:54:45;28.27;;;15.17;;
14778;SDS011;7481;53.750;10.570;2023-01-19T08:57:33;30.53;;;15.20;;
14778;SDS011;7481;53.750;10.570;2023-01-19T09:00:20;25.63;;;15.33;;
14778;SDS011;7481;53.750;10.570;2023-01-19T09:03:10;30.07;;;16.47;;
14778;SDS011;7481;53.750;10.570;2023-01-19T09:05:59;28.30;;;15.93;;
14778;SDS011;7481;53.750;10.570;2023-01-19T09:08:46;24.80;;;16.20;;
14778;SDS011;7481;53.750;10.570;2023-01-19T09:11:34;29.53;;;15.93;;
14778;SDS011;7481;53.750;10.570;2023-01-19T09:14:21;25.83;;;16.30;;
14778;SDS011;7481;53.750;10.570;2023-01-19T09:17:09;31.50;;;16.40;;
14778;SDS011;7481;53.750;10.570;2023-01-19T09:19:56;40.40;;;21.77;;
14778;SDS011;7481;53.750;10.570;2023-01-19T09:22:43;38.33;;;21.90;;
14778;SDS011;7481;53.750;10.570;2023-01-19T09:25:32;29.43;;;18.57;;
14778;SDS011;7481;53.750;10.570;2023-01-19T09:28:20;28.83;;;17.03;;
14778;SDS011;7481;53.750;10.570;2023-01-19T09:31:07;29.03;;;17.30;;
14778;SDS011;7481;53.750;10.570;2023-01-19T09:33:55;25.23;;;16.77;;
14778;SDS011;7481;53.750;10.570;2023-01-19T09:36:42;25.77;;;17.23;;
14778;SDS011;7481;53.750;10.570;2023-01-19T09:39:30;25.60;;;17.30;;
14778;SDS011;7481;53.750;10.570;2023-01-19T09:42:22;27.50;;;15.97;;
14778;SDS011;7481;53.750;10.570;2023-01-19T09:45:14;29.27;;;17.70;;
14778;SDS011;7481;53.750;10.570;2023-01-19T09:48:04;26.50;;;16.43;;
14778;SDS011;7481;53.750;10.570;2023-01-19T09:50:58;30.43;;;16.90;;
14778;SDS011;7481;53.750;10.570;2023-01-19T09:56:53;28.20;;;16.47;;
14778;SDS011;7481;53.750;10.570;2023-01-19T09:59:41;29.70;;;17.57;;
14778;SDS011;7481;53.750;10.570;2023-01-19T10:02:39;26.73;;;16.57;;
14778;SDS011;7481;53.750;10.570;2023-01-19T10:08:58;25.07;;;15.87;;
14778;SDS011;7481;53.750;10.570;2023-01-19T10:11:56;26.00;;;15.40;;
14778;SDS011;7481;53.750;10.570;2023-01-19T10:14:51;28.00;;;15.70;;
14778;SDS011;7481;53.750;10.570;2023-01-19T10:20:43;24.77;;;15.80;;
14778;SDS011;7481;53.750;10.570;2023-01-19T10:23:33;26.47;;;16.20;;
14778;SDS011;7481;53.750;10.570;2023-01-19T10:26:26;26.83;;;15.77;;
14778;SDS011;7481;53.750;10.570;2023-01-19T10:29:29;26.47;;;16.07;;
14778;SDS011;7481;53.750;10.570;2023-01-19T10:35:15;30.80;;;16.90;;
14778;SDS011;7481;53.750;10.570;2023-01-19T10:38:07;25.33;;;14.87;;
14778;SDS011;7481;53.750;10.570;2023-01-19T10:41:06;28.43;;;15.80;;
14778;SDS011;7481;53.750;10.570;2023-01-19T10:44:00;25.10;;;15.23;;
14778;SDS011;7481;53.750;10.570;2023-01-19T10:46:48;26.20;;;16.13;;
14778;SDS011;7481;53.750;10.570;2023-01-19T10:49:39;25.70;;;16.27;;
14778;SDS011;7481;53.750;10.570;2023-01-19T10:52:32;25.93;;;16.10;;
14778;SDS011;7481;53.750;10.570;2023-01-19T10:58:26;28.70;;;16.87;;
14778;SDS011;7481;53.750;10.570;2023-01-19T11:01:19;26.50;;;16.27;;
14778;SDS011;7481;53.750;10.570;2023-01-19T11:04:20;28.67;;;16.97;;
14778;SDS011;7481;53.750;10.570;2023-01-19T11:07:12;31.50;;;17.20;;
14778;SDS011;7481;53.750;10.570;2023-01-19T11:13:04;25.63;;;15.83;;
14778;SDS011;7481;53.750;10.570;2023-01-19T11:15:58;24.87;;;15.57;;
14778;SDS011;7481;53.750;10.570;2023-01-19T11:18:50;26.67;;;15.90;;
14778;SDS011;7481;53.750;10.570;2023-01-19T11:21:38;23.93;;;14.13;;
14778;SDS011;7481;53.750;10.570;2023-01-19T11:24:25;22.40;;;14.27;;
14778;SDS011;7481;53.750;10.570;2023-01-19T11:27:16;28.20;;;15.57;;
14778;SDS011;7481;53.750;10.570;2023-01-19T11:30:17;26.63;;;16.00;;
14778;SDS011;7481;53.750;10.570;2023-01-19T11:33:05;23.00;;;14.93;;
14778;SDS011;7481;53.750;10.570;2023-01-19T11:36:00;35.47;;;15.53;;
14778;SDS011;7481;53.750;10.570;2023-01-19T11:38:52;19.10;;;13.17;;
14778;SDS011;7481;53.750;10.570;2023-01-19T11:41:39;23.67;;;13.13;;
14778;SDS011;7481;53.750;10.570;2023-01-19T11:44:34;22.23;;;13.67;;
14778;SDS011;7481;53.750;10.570;2023-01-19T11:47:26;20.17;;;12.90;;
14778;SDS011;7481;53.750;10.570;2023-01-19T11:56:08;17.97;;;12.00;;
14778;SDS011;7481;53.750;10.570;2023-01-19T11:58:56;20.03;;;13.03;;
14778;SDS011;7481;53.750;10.570;2023-01-19T12:01:46;20.20;;;12.80;;
14778;SDS011;7481;53.750;10.570;2023-01-19T12:04:35;16.43;;;10.70;;
14778;SDS011;7481;53.750;10.570;2023-01-19T12:07:25;15.37;;;10.83;;
14778;SDS011;7481;53.750;10.570;2023-01-19T12:10:27;15.00;;;10.17;;
14778;SDS011;7481;53.750;10.570;2023-01-19T12:13:22;15.87;;;11.73;;
14778;SDS011;7481;53.750;10.570;2023-01-19T12:16:12;19.13;;;12.20;;
14778;SDS011;7481;53.750;10.570;2023-01-19T12:22:17;16.87;;;11.03;;
14778;SDS011;7481;53.750;10.570;2023-01-19T12:25:11;16.13;;;11.33;;
14778;SDS011;7481;53.750;10.570;2023-01-19T12:28:00;16.73;;;11.30;;
14778;SDS011;7481;53.750;10.570;2023-01-19T12:30:48;15.50;;;11.17;;
14778;SDS011;7481;53.750;10.570;2023-01-19T12:33:38;17.10;;;11.10;;
14778;SDS011;7481;53.750;10.570;2023-01-19T12:39:19;17.67;;;11.27;;
14778;SDS011;7481;53.750;10.570;2023-01-19T12:42:13;18.07;;;11.27;;
14778;SDS011;7481;53.750;10.570;2023-01-19T12:45:07;28.47;;;15.10;;
14778;SDS011;7481;53.750;10.570;2023-01-19T12:47:55;17.20;;;11.90;;
14778;SDS011;7481;53.750;10.570;2023-01-19T12:50:42;16.23;;;11.13;;
14778;SDS011;7481;53.750;10.570;2023-01-19T12:53:31;18.30;;;11.23;;
14778;SDS011;7481;53.750;10.570;2023-01-19T12:56:19;17.73;;;11.73;;
14778;SDS011;7481;53.750;10.570;2023-01-19T12:59:47;15.13;;;11.23;;
14778;SDS011;7481;53.750;10.570;2023-01-19T13:19:27;17.03;;;11.47;;
14778;SDS011;7481;53.750;10.570;2023-01-19T13:25:27;18.23;;;11.93;;
14778;SDS011;7481;53.750;10.570;2023-01-19T13:28:16;20.43;;;12.73;;
14778;SDS011;7481;53.750;10.570;2023-01-19T13:31:04;16.73;;;11.30;;
14778;SDS011;7481;53.750;10.570;2023-01-19T13:33:56;18.60;;;12.17;;
14778;SDS011;7481;53.750;10.570;2023-01-19T13:36:45;19.50;;;12.10;;
14778;SDS011;7481;53.750;10.570;2023-01-19T13:42:31;19.87;;;11.87;;
14778;SDS011;7481;53.750;10.570;2023-01-19T13:45:32;19.27;;;12.33;;
14778;SDS011;7481;53.750;10.570;2023-01-19T13:48:21;17.27;;;12.17;;
14778;SDS011;7481;53.750;10.570;2023-01-19T13:51:15;19.97;;;12.70;;
14778;SDS011;7481;53.750;10.570;2023-01-19T13:54:03;23.00;;;12.77;;
14778;SDS011;7481;53.750;10.570;2023-01-19T13:56:51;20.43;;;12.33;;
14778;SDS011;7481;53.750;10.570;2023-01-19T13:59:40;20.63;;;13.37;;
14778;SDS011;7481;53.750;10.570;2023-01-19T14:02:27;18.47;;;12.60;;
14778;SDS011;7481;53.750;10.570;2023-01-19T14:08:13;20.53;;;13.17;;
14778;SDS011;7481;53.750;10.570;2023-01-19T14:11:01;20.77;;;12.40;;
14778;SDS011;7481;53.750;10.570;2023-01-19T14:13:48;20.20;;;13.23;;
14778;SDS011;7481;53.750;10.570;2023-01-19T14:16:36;21.73;;;13.77;;
14778;SDS011;7481;53.750;10.570;2023-01-19T14:19:23;19.07;;;12.13;;
14778;SDS011;7481;53.750;10.570;2023-01-19T14:22:11;18.83;;;12.67;;
14778;SDS011;7481;53.750;10.570;2023-01-19T14:25:19;22.00;;;12.93;;
14778;SDS011;7481;53.750;10.570;2023-01-19T14:28:25;19.60;;;12.33;;
14778;SDS011;7481;53.750;10.570;2023-01-19T14:31:17;16.57;;;11.23;;
14778;SDS011;7481;53.750;10.570;2023-01-19T14:34:22;19.43;;;12.63;;
14778;SDS011;7481;53.750;10.570;2023-01-19T14:37:23;17.93;;;11.27;;
14778;SDS011;7481;53.750;10.570;2023-01-19T14:43:00;16.17;;;10.00;;
14778;SDS011;7481;53.750;10.570;2023-01-19T14:45:51;18.58;;;13.82;;
14778;SDS011;7481;53.750;10.570;2023-01-19T14:48:38;15.30;;;11.00;;
14778;SDS011;7481;53.750;10.570;2023-01-19T14:51:31;14.80;;;11.23;;
14778;SDS011;7481;53.750;10.570;2023-01-19T14:54:22;18.80;;;12.30;;
14778;SDS011;7481;53.750;10.570;2023-01-19T14:57:12;20.83;;;12.10;;
14778;SDS011;7481;53.750;10.570;2023-01-19T15:00:00;16.13;;;11.20;;
14778;SDS011;7481;53.750;10.570;2023-01-19T15:02:48;26.13;;;16.60;;
14778;SDS011;7481;53.750;10.570;2023-01-19T15:05:36;20.60;;;13.40;;
14778;SDS011;7481;53.750;10.570;2023-01-19T15:08:31;38.30;;;20.03;;
14778;SDS011;7481;53.750;10.570;2023-01-19T15:14:07;26.13;;;16.77;;
14778;SDS011;7481;53.750;10.570;2023-01-19T15:16:57;30.33;;;17.50;;
14778;SDS011;7481;53.750;10.570;2023-01-19T15:19:44;24.90;;;16.27;;
14778;SDS011;7481;53.750;10.570;2023-01-19T15:22:32;22.70;;;14.30;;
14778;SDS011;7481;53.750;10.570;2023-01-19T15:25:23;23.07;;;14.57;;
14778;SDS011;7481;53.750;10.570;2023-01-19T15:28:15;27.20;;;15.40;;
14778;SDS011;7481;53.750;10.570;2023-01-19T15:31:03;26.23;;;16.20;;
14778;SDS011;7481;53.750;10.570;2023-01-19T15:33:51;25.30;;;15.77;;
14778;SDS011;7481;53.750;10.570;2023-01-19T15:36:38;23.80;;;14.97;;
14778;SDS011;7481;53.750;10.570;2023-01-19T15:39:25;36.67;;;19.53;;
14778;SDS011;7481;53.750;10.570;2023-01-19T15:42:13;32.77;;;19.43;;
14778;SDS011;7481;53.750;10.570;2023-01-19T15:45:01;31.03;;;17.93;;
14778;SDS011;7481;53.750;10.570;2023-01-19T15:47:48;24.53;;;15.13;;
14778;SDS011;7481;53.750;10.570;2023-01-19T15:50:42;23.67;;;15.00;;
14778;SDS011;7481;53.750;10.570;2023-01-19T15:53:30;23.03;;;15.53;;
14778;SDS011;7481;53.750;10.570;2023-01-19T15:56:18;23.47;;;13.03;;
14778;SDS011;7481;53.750;10.570;2023-01-19T15:59:06;27.20;;;14.80;;
14778;SDS011;7481;53.750;10.570;2023-01-19T16:01:53;22.43;;;15.07;;
14778;SDS011;7481;53.750;10.570;2023-01-19T16:04:41;26.53;;;16.03;;
14778;SDS011;7481;53.750;10.570;2023-01-19T16:07:28;25.53;;;17.50;;
14778;SDS011;7481;53.750;10.570;2023-01-19T16:10:16;34.27;;;20.73;;
14778;SDS011;7481;53.750;10.570;2023-01-19T16:13:03;31.57;;;20.03;;
14778;SDS011;7481;53.750;10.570;2023-01-19T16:15:51;28.80;;;16.40;;
14778;SDS011;7481;53.750;10.570;2023-01-19T16:18:38;23.17;;;13.73;;
14778;SDS011;7481;53.750;10.570;2023-01-19T16:21:26;24.53;;;15.43;;
14778;SDS011;7481;53.750;10.570;2023-01-19T16:24:13;27.93;;;17.00;;
14778;SDS011;7481;53.750;10.570;2023-01-19T16:27:01;21.07;;;12.17;;
14778;SDS011;7481;53.750;10.570;2023-01-19T16:29:49;20.30;;;13.20;;
14778;SDS011;7481;53.750;10.570;2023-01-19T16:32:36;24.30;;;14.67;;
14778;SDS011;7481;53.750;10.570;2023-01-19T16:35:24;23.87;;;13.20;;
14778;SDS011;7481;53.750;10.570;2023-01-19T16:38:11;23.73;;;12.87;;
14778;SDS011;7481;53.750;10.570;2023-01-19T16:40:58;25.63;;;13.50;;
14778;SDS011;7481;53.750;10.570;2023-01-19T16:43:49;27.03;;;12.87;;
14778;SDS011;7481;53.750;10.570;2023-01-19T16:46:38;23.37;;;13.77;;
14778;SDS011;7481;53.750;10.570;2023-01-19T16:49:25;20.20;;;12.60;;
14778;SDS011;7481;53.750;10.570;2023-01-19T16:52:14;23.67;;;13.10;;
14778;SDS011;7481;53.750;10.570;2023-01-19T16:55:01;21.13;;;13.20;;
14778;SDS011;7481;53.750;10.570;2023-01-19T16:57:54;26.13;;;14.27;;
14778;SDS011;7481;53.750;10.570;2023-01-19T17:00:41;20.53;;;13.07;;
14778;SDS011;7481;53.750;10.570;2023-01-19T17:03:29;27.63;;;14.10;;
14778;SDS011;7481;53.750;10.570;2023-01-19T17:06:17;28.23;;;14.97;;
14778;SDS011;7481;53.750;10.570;2023-01-19T17:09:05;37.92;;;22.67;;
14778;SDS011;7481;53.750;10.570;2023-01-19T17:11:54;32.57;;;18.93;;
14778;SDS011;7481;53.750;10.570;2023-01-19T17:14:43;33.63;;;15.87;;
14778;SDS011;7481;53.750;10.570;2023-01-19T17:17:32;26.97;;;15.77;;
14778;SDS011;7481;53.750;10.570;2023-01-19T17:20:21;34.72;;;17.40;;
14778;SDS011;7481;53.750;10.570;2023-01-19T17:23:09;31.10;;;16.37;;
14778;SDS011;7481;53.750;10.570;2023-01-19T17:25:56;28.97;;;16.10;;
14778;SDS011;7481;53.750;10.570;2023-01-19T17:28:44;23.13;;;14.37;;
14778;SDS011;7481;53.750;10.570;2023-01-19T17:31:32;24.87;;;14.03;;
14778;SDS011;7481;53.750;10.570;2023-01-19T17:34:20;25.87;;;15.00;;
14778;SDS011;7481;53.750;10.570;2023-01-19T17:37:07;21.33;;;13.97;;
14778;SDS011;7481;53.750;10.570;2023-01-19T17:39:54;26.47;;;15.07;;
14778;SDS011;7481;53.750;10.570;2023-01-19T17:42:42;27.47;;;13.93;;
14778;SDS011;7481;53.750;10.570;2023-01-19T17:45:29;25.43;;;14.63;;
14778;SDS011;7481;53.750;10.570;2023-01-19T17:48:17;25.17;;;13.37;;
14778;SDS011;7481;53.750;10.570;2023-01-19T17:51:05;24.70;;;13.90;;
14778;SDS011;7481;53.750;10.570;2023-01-19T17:53:53;23.37;;;13.33;;